Cowan Heights, California
Current Conditions -  °F | °C
As of 2:53 PM on Wednesday 26 Nov 2014 (Local Time) from KSNA Reporting Station
Clear Clear  
Wind Chill: 81°   Ceiling: Unl
Heat Index: 81°   Visibility: 10mi
Dew Point: 36°   Wind: 8mph
Humidity: 20%   Direction: 200°SSW
Pressure: 30.12"   Gusts: NA
Location:  33.7594°N, 117.781°W
Report Text: KSNA 262253Z 20007KT 10SM CLR 27/02 A3012 RMK AO2 SLP199 T02720022
Loading
Personal Weather Stations






























Interactive Weather Map New forecast layout! Learn more

10-Day Weather Forecast

Advertisements
Track Severe Weather on mobile